createdAt,value
2023-04-25T00:00:05.616Z,98248.28
2023-04-25T00:02:32.382Z,98236.50
2023-04-25T00:04:59.172Z,98246.53
2023-04-25T00:07:25.834Z,98237.00
2023-04-25T00:09:52.230Z,98243.38
2023-04-25T00:12:18.930Z,98234.31
2023-04-25T00:14:45.404Z,98239.44
2023-04-25T00:17:11.836Z,98233.31
2023-04-25T00:19:38.235Z,98232.50
2023-04-25T00:22:04.997Z,98237.94
2023-04-25T00:24:31.413Z,98228.63
2023-04-25T00:26:57.891Z,98240.88
2023-04-25T00:29:24.331Z,98240.41
2023-04-25T00:31:50.769Z,98235.63
2023-04-25T00:34:17.272Z,98232.28
2023-04-25T00:36:43.828Z,98234.13
2023-04-25T00:39:10.283Z,98231.31
2023-04-25T00:41:36.681Z,98225.94
2023-04-25T00:44:03.160Z,98221.72
2023-04-25T00:46:29.610Z,98216.41
2023-04-25T00:48:56.065Z,98222.50
2023-04-25T00:51:22.494Z,98228.47
2023-04-25T00:53:49.211Z,98235.88
2023-04-25T00:56:15.779Z,98229.03
2023-04-25T00:58:42.244Z,98227.22
2023-04-25T01:01:08.694Z,98228.25
2023-04-25T01:03:35.269Z,98225.31
2023-04-25T01:06:01.747Z,98229.34
2023-04-25T01:08:28.213Z,98221.63
2023-04-25T01:10:55.947Z,98219.00
2023-04-25T01:13:22.360Z,98228.41
2023-04-25T01:15:49.103Z,98225.31
2023-04-25T01:18:15.554Z,98225.09
2023-04-25T01:20:42.431Z,98221.50
2023-04-25T01:23:10.108Z,98213.81
2023-04-25T01:25:36.847Z,98223.13
2023-04-25T01:28:03.314Z,98225.31
2023-04-25T01:30:29.736Z,98216.03
2023-04-25T01:32:56.267Z,98224.06
2023-04-25T01:35:22.729Z,98223.63
2023-04-25T01:37:49.179Z,98221.97
2023-04-25T01:40:16.862Z,98219.41
2023-04-25T01:42:43.268Z,98221.81
2023-04-25T01:45:09.780Z,98220.50
2023-04-25T01:47:36.407Z,98238.06
2023-04-25T01:50:03.042Z,98226.84
2023-04-25T01:52:29.474Z,98221.97
2023-04-25T01:54:55.942Z,98225.16
2023-04-25T01:57:22.396Z,98222.19
2023-04-25T01:59:48.802Z,98216.91
2023-04-25T02:02:17.674Z,98228.09
2023-04-25T02:04:44.333Z,98228.94
2023-04-25T02:07:10.874Z,98226.59
2023-04-25T02:09:37.314Z,98227.09
2023-04-25T02:12:03.835Z,98224.47
2023-04-25T02:14:30.509Z,98221.09
2023-04-25T02:16:57.100Z,98227.75
2023-04-25T02:19:23.734Z,98221.81
2023-04-25T02:21:50.104Z,98227.22
2023-04-25T02:24:16.691Z,98219.81
2023-04-25T02:26:43.215Z,98215.81
2023-04-25T02:29:09.721Z,98216.28
2023-04-25T02:31:36.262Z,98211.75
2023-04-25T02:34:02.743Z,98215.75
2023-04-25T02:36:29.263Z,98225.13
2023-04-25T02:38:56.019Z,98221.31
2023-04-25T02:41:22.441Z,98232.28
2023-04-25T02:43:49.206Z,98218.81
2023-04-25T02:46:20.836Z,98210.38
2023-04-25T02:48:53.204Z,98206.81
2023-04-25T02:51:20.664Z,98210.09
2023-04-25T02:53:47.079Z,98204.94
2023-04-25T02:56:13.514Z,98203.88
2023-04-25T02:58:40.135Z,98204.91
2023-04-25T03:01:06.687Z,98200.38
2023-04-25T03:03:33.191Z,98196.94
2023-04-25T03:05:59.719Z,98198.81
2023-04-25T03:08:26.569Z,98196.19
2023-04-25T03:10:53.572Z,98206.31
2023-04-25T03:13:20.014Z,98204.59
2023-04-25T03:15:46.438Z,98200.28
2023-04-25T03:18:13.126Z,98203.25
2023-04-25T03:20:39.544Z,98197.25
2023-04-25T03:23:06.058Z,98198.81
2023-04-25T03:25:32.458Z,98204.19
2023-04-25T03:27:58.931Z,98199.22
2023-04-25T03:30:25.316Z,98203.97
2023-04-25T03:32:51.913Z,98206.50
2023-04-25T03:35:18.485Z,98214.09
2023-04-25T03:37:44.980Z,98211.25
2023-04-25T03:40:12.510Z,98216.28
2023-04-25T03:42:38.945Z,98203.56
2023-04-25T03:45:05.401Z,98216.09
2023-04-25T03:47:31.952Z,98215.03
2023-04-25T03:49:58.492Z,98212.63
2023-04-25T03:52:24.960Z,98215.91
2023-04-25T03:54:51.428Z,98209.78
2023-04-25T03:57:17.858Z,98214.41
2023-04-25T03:59:44.461Z,98221.38
2023-04-25T04:02:11.974Z,98221.78
2023-04-25T04:04:38.755Z,98226.75
2023-04-25T04:07:05.390Z,98231.16
2023-04-25T04:09:33.945Z,98232.97
2023-04-25T04:12:00.398Z,98224.31
2023-04-25T04:14:26.940Z,98234.75
2023-04-25T04:16:53.440Z,98230.97
2023-04-25T04:19:20.091Z,98239.16
2023-04-25T04:21:46.583Z,98236.09
2023-04-25T04:24:13.027Z,98237.75
2023-04-25T04:26:39.480Z,98236.09
2023-04-25T04:29:05.927Z,98241.97
2023-04-25T04:31:32.364Z,98244.81
2023-04-25T04:33:58.824Z,98238.81
2023-04-25T04:36:25.282Z,98241.50
2023-04-25T04:38:51.654Z,98243.03
2023-04-25T04:41:18.520Z,98250.03
2023-04-25T04:43:44.962Z,98247.34
2023-04-25T04:46:11.551Z,98251.91
2023-04-25T04:48:37.968Z,98243.88
2023-04-25T04:51:04.540Z,98251.03
2023-04-25T04:53:30.945Z,98246.50
2023-04-25T04:55:57.344Z,98246.50
2023-04-25T04:58:25.101Z,98242.19
2023-04-25T05:00:51.840Z,98244.28
2023-04-25T05:03:18.690Z,98239.22
2023-04-25T05:05:46.981Z,98239.78
2023-04-25T05:08:13.414Z,98237.09
2023-04-25T05:10:39.849Z,98241.88
2023-04-25T05:13:06.239Z,98241.03
2023-04-25T05:15:32.639Z,98244.28
2023-04-25T05:17:59.106Z,98249.16
2023-04-25T05:20:25.637Z,98244.28
2023-04-25T05:22:52.412Z,98253.34
2023-04-25T05:25:18.927Z,98246.19
2023-04-25T05:27:45.455Z,98249.44
2023-04-25T05:30:11.917Z,98249.34
2023-04-25T05:32:38.569Z,98245.53
2023-04-25T05:35:05.220Z,98250.28
2023-04-25T05:37:31.673Z,98241.44
2023-04-25T05:39:58.169Z,98242.44
2023-04-25T05:42:24.687Z,98240.41
2023-04-25T05:44:51.231Z,98238.59
2023-04-25T05:47:17.728Z,98237.66
2023-04-25T05:49:44.165Z,98238.28
2023-04-25T05:52:10.753Z,98233.75
2023-04-25T05:54:37.346Z,98241.13
2023-04-25T05:57:03.961Z,98242.00
2023-04-25T05:59:30.717Z,98237.72
2023-04-25T06:01:57.939Z,98238.88
2023-04-25T06:04:24.661Z,98242.63
2023-04-25T06:06:51.271Z,98247.38
2023-04-25T06:09:17.734Z,98232.13
2023-04-25T06:11:44.168Z,98234.03
2023-04-25T06:14:10.597Z,98240.75
2023-04-25T06:16:37.267Z,98233.41
2023-04-25T06:19:03.745Z,98231.16
2023-04-25T06:21:30.386Z,98238.00
2023-04-25T06:23:56.914Z,98238.00
2023-04-25T06:26:23.357Z,98230.44
2023-04-25T06:28:49.950Z,98225.84
2023-04-25T06:31:16.441Z,98228.78
2023-04-25T06:33:42.906Z,98221.53
2023-04-25T06:36:09.354Z,98227.47
2023-04-25T06:38:35.869Z,98230.53
2023-04-25T06:41:02.358Z,98227.25
2023-04-25T06:43:28.760Z,98226.50
2023-04-25T06:45:55.534Z,98232.00
2023-04-25T06:48:22.114Z,98222.78
2023-04-25T06:50:48.511Z,98210.97
2023-04-25T06:53:17.038Z,98212.63
2023-04-25T06:55:43.601Z,98203.78
2023-04-25T06:58:10.029Z,98213.53
2023-04-25T07:00:36.496Z,98214.50
2023-04-25T07:03:03.074Z,98214.88
2023-04-25T07:05:29.549Z,98206.25
2023-04-25T07:07:56.018Z,98203.81
2023-04-25T07:10:22.582Z,98200.47
2023-04-25T07:12:49.012Z,98207.34
2023-04-25T07:15:15.446Z,98203.28
2023-04-25T07:17:41.926Z,98206.97
2023-04-25T07:20:09.392Z,98199.56
2023-04-25T07:22:35.882Z,98194.84
2023-04-25T07:25:02.296Z,98194.47
2023-04-25T07:27:28.872Z,98191.97
2023-04-25T07:29:57.657Z,98197.25
2023-04-25T07:32:24.390Z,98200.00
2023-04-25T07:34:50.818Z,98184.25
2023-04-25T07:37:17.266Z,98187.06
2023-04-25T07:39:43.800Z,98184.38
2023-04-25T07:42:10.332Z,98185.25
2023-04-25T07:44:36.861Z,98190.31
2023-04-25T07:47:04.494Z,98179.09
2023-04-25T07:49:31.093Z,98181.72
2023-04-25T07:51:57.717Z,98184.41
2023-04-25T07:54:24.386Z,98178.66
2023-04-25T07:56:53.786Z,98189.13
2023-04-25T07:59:20.461Z,98175.31
2023-04-25T08:01:47.160Z,98181.63
2023-04-25T08:04:14.961Z,98176.59
2023-04-25T08:06:41.652Z,98183.78
2023-04-25T08:09:08.594Z,98169.78
2023-04-25T08:11:35.023Z,98171.09
2023-04-25T08:14:01.935Z,98177.47
2023-04-25T08:16:28.619Z,98184.44
2023-04-25T08:18:56.067Z,98171.59
2023-04-25T08:21:22.524Z,98164.13
2023-04-25T08:23:49.009Z,98169.19
2023-04-25T08:26:15.436Z,98167.25
2023-04-25T08:28:43.666Z,98157.88
2023-04-25T08:31:10.255Z,98156.56
2023-04-25T08:33:36.662Z,98157.53
2023-04-25T08:36:05.447Z,98155.94
2023-04-25T08:38:31.935Z,98160.50
2023-04-25T08:40:58.398Z,98149.97
2023-04-25T08:43:25.172Z,98153.44
2023-04-25T08:45:51.646Z,98142.22
2023-04-25T08:48:18.064Z,98144.72
2023-04-25T08:50:44.503Z,98143.06
2023-04-25T08:53:12.068Z,98141.03
2023-04-25T08:55:38.621Z,98143.03
2023-04-25T08:58:05.106Z,98142.19
2023-04-25T09:00:31.780Z,98144.66
2023-04-25T09:02:58.393Z,98146.75
2023-04-25T09:05:25.016Z,98144.06
2023-04-25T09:07:51.494Z,98144.22
2023-04-25T09:10:18.123Z,98142.91
2023-04-25T09:12:44.670Z,98143.88
2023-04-25T09:15:11.304Z,98138.03
2023-04-25T09:17:37.876Z,98141.94
2023-04-25T09:20:04.402Z,98151.00
2023-04-25T09:22:30.931Z,98147.91
2023-04-25T09:24:57.457Z,98147.31
2023-04-25T09:27:24.061Z,98161.25
2023-04-25T09:29:50.641Z,98151.34
2023-04-25T09:32:17.298Z,98158.91
2023-04-25T09:34:43.805Z,98158.72
2023-04-25T09:37:10.333Z,98159.53
2023-04-25T09:39:36.784Z,98163.00
2023-04-25T09:42:05.260Z,98165.31
2023-04-25T09:44:31.711Z,98163.94
2023-04-25T09:46:58.308Z,98159.56
2023-04-25T09:49:24.779Z,98168.81
2023-04-25T09:51:51.224Z,98172.28
2023-04-25T09:54:17.958Z,98166.84
2023-04-25T09:56:44.802Z,98176.03
2023-04-25T09:59:11.380Z,98170.09
2023-04-25T10:01:38.121Z,98177.56
2023-04-25T10:04:04.881Z,98170.88
2023-04-25T10:06:31.542Z,98174.34
2023-04-25T10:08:57.994Z,98174.94
2023-04-25T10:11:24.450Z,98165.59
2023-04-25T10:13:51.043Z,98157.91
2023-04-25T10:16:18.209Z,98163.19
2023-04-25T10:18:44.661Z,98154.50
2023-04-25T10:21:11.198Z,98155.44
2023-04-25T10:23:37.744Z,98147.50
2023-04-25T10:26:04.278Z,98145.31
2023-04-25T10:28:30.877Z,98137.28
2023-04-25T10:30:57.641Z,98138.44
2023-04-25T10:33:24.330Z,98137.31
2023-04-25T10:35:50.730Z,98131.34
2023-04-25T10:38:17.173Z,98135.19
2023-04-25T10:40:43.588Z,98124.31
2023-04-25T10:43:10.031Z,98132.31
2023-04-25T10:45:36.436Z,98128.69
2023-04-25T10:48:03.033Z,98123.16
2023-04-25T10:50:29.499Z,98128.47
2023-04-25T10:52:55.968Z,98116.78
2023-04-25T10:55:22.369Z,98111.22
2023-04-25T10:57:48.834Z,98111.38
2023-04-25T11:00:15.605Z,98107.59
2023-04-25T11:02:42.322Z,98106.16
2023-04-25T11:05:08.984Z,98094.16
2023-04-25T11:07:35.441Z,98078.66
2023-04-25T11:10:02.020Z,98080.28
2023-04-25T11:12:28.481Z,98076.38
2023-04-25T11:14:54.911Z,98079.28
2023-04-25T11:17:21.383Z,98092.31
2023-04-25T11:19:48.201Z,98092.19
2023-04-25T11:22:14.632Z,98107.47
2023-04-25T11:24:41.093Z,98116.63
2023-04-25T11:27:07.478Z,98159.16
2023-04-25T11:29:34.054Z,98141.38
2023-04-25T11:32:00.585Z,98144.66
2023-04-25T11:34:27.060Z,98144.53
2023-04-25T11:36:54.608Z,98152.81
2023-04-25T11:39:21.064Z,98171.31
2023-04-25T11:41:47.515Z,98179.69
2023-04-25T11:44:14.099Z,98178.47
2023-04-25T11:46:40.610Z,98177.81
2023-04-25T11:49:07.034Z,98180.81
2023-04-25T11:51:33.466Z,98180.56
2023-04-25T11:54:00.166Z,98179.25
2023-04-25T11:56:26.608Z,98177.34
2023-04-25T11:58:53.101Z,98167.47
2023-04-25T12:01:19.742Z,98175.03
2023-04-25T12:03:46.388Z,98165.81
2023-04-25T12:06:12.989Z,98163.19
2023-04-25T12:08:39.485Z,98169.19
2023-04-25T12:11:06.884Z,98164.59
2023-04-25T12:13:33.459Z,98167.47
2023-04-25T12:15:59.969Z,98155.47
2023-04-25T12:18:26.542Z,98179.28
2023-04-25T12:20:52.976Z,98160.84
2023-04-25T12:23:19.452Z,98165.06
2023-04-25T12:25:46.025Z,98155.94
2023-04-25T12:28:12.518Z,98155.47
2023-04-25T12:30:39.660Z,98149.53
2023-04-25T12:33:07.289Z,98144.91
2023-04-25T12:35:33.726Z,98134.91
2023-04-25T12:38:00.347Z,98129.50
2023-04-25T12:40:26.843Z,98150.84
2023-04-25T12:42:53.320Z,98148.22
2023-04-25T12:45:19.806Z,98138.84
2023-04-25T12:47:46.305Z,98138.63
2023-04-25T12:50:12.795Z,98126.78
2023-04-25T12:52:39.444Z,98141.50
2023-04-25T12:55:06.067Z,98135.00
2023-04-25T12:57:32.469Z,98138.94
2023-04-25T12:59:58.917Z,98134.50
2023-04-25T13:02:25.749Z,98126.31
2023-04-25T13:04:52.606Z,98128.97
2023-04-25T13:07:19.289Z,98118.06
2023-04-25T13:09:45.728Z,98111.00
2023-04-25T13:12:14.291Z,98109.78
2023-04-25T13:14:40.796Z,98114.97
2023-04-25T13:17:07.533Z,98118.06
2023-04-25T13:19:34.038Z,98103.66
2023-04-25T13:22:00.694Z,98115.78
2023-04-25T13:24:27.150Z,98111.78
2023-04-25T13:26:54.084Z,98113.47
2023-04-25T13:29:20.607Z,98117.59
2023-04-25T13:31:47.112Z,98116.38
2023-04-25T13:34:13.755Z,98120.75
2023-04-25T13:36:40.246Z,98119.25
2023-04-25T13:39:06.641Z,98142.53
2023-04-25T13:41:34.499Z,98127.91
2023-04-25T13:44:00.961Z,98130.22
2023-04-25T13:46:44.611Z,98121.53
2023-04-25T13:49:13.811Z,98148.00
2023-04-25T13:51:40.340Z,98142.13
2023-04-25T13:54:06.848Z,98150.09
2023-04-25T13:56:33.384Z,98152.91
2023-04-25T13:58:59.883Z,98135.09
2023-04-25T14:01:26.596Z,98157.41
2023-04-25T14:03:53.591Z,98158.75
2023-04-25T14:06:20.403Z,98150.16
2023-04-25T14:08:46.831Z,98173.00
2023-04-25T14:11:14.514Z,98154.16
2023-04-25T14:13:40.966Z,98169.69
2023-04-25T14:16:07.862Z,98176.66
2023-04-25T14:18:34.301Z,98171.16
2023-04-25T14:21:00.715Z,98171.34
2023-04-25T14:23:27.391Z,98177.50
2023-04-25T14:25:53.818Z,98159.56
2023-04-25T14:28:20.563Z,98174.19
2023-04-25T14:30:47.250Z,98186.19
2023-04-25T14:33:13.779Z,98193.25
2023-04-25T14:35:40.389Z,98195.72
2023-04-25T14:38:06.878Z,98196.56
2023-04-25T14:40:33.350Z,98195.50
2023-04-25T14:42:59.933Z,98195.00
2023-04-25T14:45:26.417Z,98178.53
2023-04-25T14:47:52.979Z,98191.69
2023-04-25T14:50:19.669Z,98191.63
2023-04-25T14:52:46.739Z,98192.84
2023-04-25T14:55:13.177Z,98192.88
2023-04-25T14:57:39.726Z,98194.72
2023-04-25T15:00:06.885Z,98202.84
2023-04-25T15:02:33.478Z,98197.88
2023-04-25T15:05:00.257Z,98204.41
2023-04-25T15:07:26.847Z,98193.97
2023-04-25T15:09:53.324Z,98194.25
2023-04-25T15:12:19.916Z,98194.88
2023-04-25T15:14:46.324Z,98191.41
2023-04-25T15:17:12.813Z,98196.69
2023-04-25T15:19:39.227Z,98201.66
2023-04-25T15:22:05.743Z,98204.09
2023-04-25T15:24:32.328Z,98206.09
2023-04-25T15:26:58.807Z,98189.38
2023-04-25T15:29:25.277Z,98206.41
2023-04-25T15:31:51.731Z,98201.56
2023-04-25T15:34:18.764Z,98217.00
2023-04-25T15:36:45.283Z,98215.16
2023-04-25T15:39:11.970Z,98220.78
2023-04-25T15:41:38.405Z,98244.50
2023-04-25T15:44:05.198Z,98233.63
2023-04-25T15:46:31.671Z,98237.19
2023-04-25T15:48:58.191Z,98243.38
2023-04-25T15:51:24.897Z,98241.84
2023-04-25T15:53:51.456Z,98255.75
2023-04-25T15:56:18.143Z,98252.53
2023-04-25T15:58:44.593Z,98251.44
2023-04-25T16:01:11.274Z,98250.41
2023-04-25T16:03:37.952Z,98260.03
2023-04-25T16:06:05.100Z,98255.09
2023-04-25T16:08:31.556Z,98269.53
2023-04-25T16:10:58.031Z,98253.75
2023-04-25T16:13:24.568Z,98256.16
2023-04-25T16:15:51.281Z,98250.53
2023-04-25T16:18:17.898Z,98256.53
2023-04-25T16:20:44.555Z,98265.38
2023-04-25T16:23:11.496Z,98256.56
2023-04-25T16:25:45.101Z,98258.66
2023-04-25T16:28:11.924Z,98256.41
2023-04-25T16:30:38.427Z,98247.09
2023-04-25T16:33:06.115Z,98251.56
2023-04-25T16:35:32.713Z,98251.13
2023-04-25T16:38:00.173Z,98258.47
2023-04-25T16:40:26.684Z,98250.88
2023-04-25T16:42:53.087Z,98262.28
2023-04-25T16:45:19.661Z,98263.00
2023-04-25T16:47:46.422Z,98272.47
2023-04-25T16:50:12.923Z,98261.59
2023-04-25T16:52:39.287Z,98262.53
2023-04-25T16:55:06.080Z,98268.78
2023-04-25T16:57:32.555Z,98260.34
2023-04-25T16:59:59.716Z,98266.50
2023-04-25T17:02:26.653Z,98266.50
2023-04-25T17:04:53.288Z,98282.16
2023-04-25T17:07:19.735Z,98288.72
2023-04-25T17:09:46.608Z,98294.91
2023-04-25T17:12:13.438Z,98295.34
2023-04-25T17:14:40.080Z,98302.56
2023-04-25T17:17:06.719Z,98299.94
2023-04-25T17:19:33.175Z,98304.66
2023-04-25T17:21:59.695Z,98311.13
2023-04-25T17:24:26.203Z,98302.06
2023-04-25T17:26:52.644Z,98314.97
2023-04-25T17:29:19.118Z,98308.50
2023-04-25T17:31:45.670Z,98310.78
2023-04-25T17:34:12.131Z,98311.38
2023-04-25T17:36:38.860Z,98316.41
2023-04-25T17:39:06.852Z,98324.44
2023-04-25T17:41:33.485Z,98318.47
2023-04-25T17:44:00.132Z,98320.59
2023-04-25T17:46:27.188Z,98325.97
2023-04-25T17:48:54.499Z,98330.19
2023-04-25T17:51:23.198Z,98327.25
2023-04-25T17:53:50.742Z,98329.63
2023-04-25T17:56:26.766Z,98328.44
2023-04-25T17:58:54.067Z,98345.72
2023-04-25T18:01:21.027Z,98344.75
2023-04-25T18:03:48.207Z,98347.66
2023-04-25T18:06:15.197Z,98353.66
2023-04-25T18:08:41.910Z,98359.59
2023-04-25T18:11:09.944Z,98356.78
2023-04-25T18:13:36.868Z,98367.66
2023-04-25T18:16:04.250Z,98365.88
2023-04-25T18:18:30.828Z,98368.75
2023-04-25T18:20:57.779Z,98373.56
2023-04-25T18:23:24.902Z,98367.44
2023-04-25T18:25:52.888Z,98366.88
2023-04-25T18:28:19.785Z,98373.22
2023-04-25T18:30:47.101Z,98388.34
2023-04-25T18:33:14.093Z,98389.22
2023-04-25T18:35:51.517Z,98399.88
2023-04-25T18:38:35.336Z,98397.50
2023-04-25T18:41:15.550Z,98404.75
2023-04-25T18:43:50.751Z,98407.28
2023-04-25T18:46:17.976Z,98419.88
2023-04-25T18:48:45.217Z,98428.53
2023-04-25T18:51:15.329Z,98425.72
2023-04-25T18:53:41.894Z,98431.09
2023-04-25T18:56:08.694Z,98435.13
2023-04-25T18:58:35.465Z,98441.38
2023-04-25T19:01:03.039Z,98441.72
2023-04-25T19:03:30.204Z,98451.16
2023-04-25T19:05:57.455Z,98459.63
2023-04-25T19:08:26.549Z,98460.41
2023-04-25T19:10:53.406Z,98464.69
2023-04-25T19:13:20.248Z,98463.84
2023-04-25T19:15:46.748Z,98458.69
2023-04-25T19:18:13.806Z,98460.47
2023-04-25T19:20:41.007Z,98466.28
2023-04-25T19:23:08.036Z,98466.84
2023-04-25T19:25:35.866Z,98476.59
2023-04-25T19:28:06.084Z,98476.53
2023-04-25T19:30:35.341Z,98481.25
2023-04-25T19:33:02.590Z,98467.00
2023-04-25T19:35:29.555Z,98469.34
2023-04-25T19:37:56.406Z,98479.41
2023-04-25T19:40:23.186Z,98474.84
2023-04-25T19:42:49.778Z,98479.94
2023-04-25T19:45:16.727Z,98477.28
2023-04-25T19:47:43.834Z,98482.44
2023-04-25T19:50:10.798Z,98480.34
2023-04-25T19:52:41.699Z,98489.94
2023-04-25T19:55:09.750Z,98489.19
2023-04-25T19:57:36.274Z,98500.72
2023-04-25T20:00:04.241Z,98505.69
2023-04-25T20:02:31.111Z,98509.47
2023-04-25T20:04:57.910Z,98503.22
2023-04-25T20:07:25.176Z,98500.38
2023-04-25T20:09:51.728Z,98501.22
2023-04-25T20:12:18.261Z,98511.56
2023-04-25T20:14:44.860Z,98499.66
2023-04-25T20:17:13.693Z,98506.72
2023-04-25T20:19:41.265Z,98511.59
2023-04-25T20:22:07.998Z,98514.00
2023-04-25T20:24:34.916Z,98519.59
2023-04-25T20:27:01.569Z,98514.84
2023-04-25T20:29:28.918Z,98515.16
2023-04-25T20:31:55.822Z,98511.81
2023-04-25T20:34:22.303Z,98514.94
2023-04-25T20:36:49.813Z,98517.78
2023-04-25T20:39:16.260Z,98524.44
2023-04-25T20:41:42.926Z,98521.81
2023-04-25T20:44:09.900Z,98528.97
2023-04-25T20:46:36.434Z,98540.25
2023-04-25T20:49:02.945Z,98541.00
2023-04-25T20:51:29.456Z,98542.38
2023-04-25T20:53:56.230Z,98553.44
2023-04-25T20:56:22.695Z,98555.69
2023-04-25T20:58:49.156Z,98553.09
2023-04-25T21:01:15.884Z,98557.31
2023-04-25T21:03:42.656Z,98554.81
2023-04-25T21:06:09.529Z,98561.72
2023-04-25T21:08:36.186Z,98570.91
2023-04-25T21:11:02.901Z,98575.81
2023-04-25T21:13:29.381Z,98572.91
2023-04-25T21:15:55.815Z,98576.59
2023-04-25T21:18:24.569Z,98581.59
2023-04-25T21:20:51.030Z,98579.00
2023-04-25T21:23:17.569Z,98586.34
2023-04-25T21:25:43.994Z,98584.81
2023-04-25T21:28:10.925Z,98588.31
2023-04-25T21:30:37.588Z,98584.78
2023-04-25T21:33:04.148Z,98594.63
2023-04-25T21:35:30.661Z,98591.47
2023-04-25T21:37:57.152Z,98598.59
2023-04-25T21:40:23.677Z,98593.22
2023-04-25T21:42:50.159Z,98604.91
2023-04-25T21:45:16.538Z,98601.03
2023-04-25T21:47:43.188Z,98598.81
2023-04-25T21:50:10.690Z,98606.88
2023-04-25T21:52:37.194Z,98609.13
2023-04-25T21:55:03.656Z,98611.00
2023-04-25T21:57:30.636Z,98615.03
2023-04-25T21:59:57.070Z,98610.63
2023-04-25T22:02:23.614Z,98617.97
2023-04-25T22:04:50.313Z,98612.16
2023-04-25T22:07:17.151Z,98621.91
2023-04-25T22:09:54.596Z,98628.97
2023-04-25T22:12:22.227Z,98626.41
2023-04-25T22:14:48.643Z,98626.13
2023-04-25T22:17:15.256Z,98623.81
2023-04-25T22:19:41.713Z,98640.53
2023-04-25T22:22:08.153Z,98636.59
2023-04-25T22:24:34.553Z,98644.97
2023-04-25T22:27:01.078Z,98645.41
2023-04-25T22:29:27.609Z,98650.03
2023-04-25T22:31:54.336Z,98646.19
2023-04-25T22:34:20.989Z,98657.06
2023-04-25T22:36:47.418Z,98664.13
2023-04-25T22:39:16.225Z,98662.53
2023-04-25T22:41:42.679Z,98665.63
2023-04-25T22:44:09.134Z,98659.34
2023-04-25T22:46:35.556Z,98658.88
2023-04-25T22:49:01.962Z,98674.00
2023-04-25T22:51:28.642Z,98661.28
2023-04-25T22:53:55.561Z,98674.19
2023-04-25T22:56:22.013Z,98671.56
2023-04-25T22:58:48.582Z,98675.25
2023-04-25T23:01:18.299Z,98681.47
2023-04-25T23:03:47.802Z,98685.19
2023-04-25T23:06:14.402Z,98678.13
2023-04-25T23:08:40.858Z,98693.38
2023-04-25T23:11:07.258Z,98675.59
2023-04-25T23:13:33.677Z,98682.00
2023-04-25T23:16:00.325Z,98676.25
2023-04-25T23:18:26.722Z,98703.75
2023-04-25T23:20:54.360Z,98695.53
2023-04-25T23:23:21.174Z,98696.38
2023-04-25T23:25:47.637Z,98698.31
2023-04-25T23:28:14.130Z,98697.91
2023-04-25T23:30:40.564Z,98699.16
2023-04-25T23:33:07.171Z,98702.06
2023-04-25T23:35:33.850Z,98703.47
2023-04-25T23:38:00.681Z,98701.97
2023-04-25T23:40:27.465Z,98704.19
2023-04-25T23:42:53.864Z,98705.00
2023-04-25T23:45:20.444Z,98705.25
2023-04-25T23:47:46.924Z,98702.94
2023-04-25T23:50:13.638Z,98713.56
2023-04-25T23:52:40.063Z,98715.03
2023-04-25T23:55:06.584Z,98707.88
2023-04-25T23:57:33.022Z,98705.22
2023-04-25T23:59:59.561Z,98714.19
